FDX220 KMEM-KMIA
Flight info
| Callsign | FDX220 |
|---|---|
| Flight time | 1h 49m |
| Altitude | 37000 |
| Route | BBKNG7 KERMI MGMRY ACORI FROGZ5 |
| Aircraft | A306/H-SDE3FGHIRWY/LB1 |
Departure
| Time | 2026-05-07 15:55 |
|---|---|
| Airport | Memphis International Airport (KMEM) |
Arrival
| Time | 2026-05-07 17:44 |
|---|---|
| Airport | Miami International Airport (KMIA) |
| Time | Latitude | Longitude | Altitude | Speed | Heading |
|---|---|---|---|---|---|
| 2026-05-07 15:13 | 35.06166 | -89.98339 | 337 ft | 0 kts | 271° |
| 2026-05-07 15:43 | 35.06166 | -89.98326 | 331 ft | 4 kts | 268° |
| 2026-05-07 15:43 | 35.06169 | -89.98294 | 332 ft | 4 kts | 253° |
| 2026-05-07 15:43 | 35.06180 | -89.98266 | 331 ft | 4 kts | 219° |
| 2026-05-07 15:43 | 35.06195 | -89.98256 | 331 ft | 0 kts | 182° |
| 2026-05-07 15:48 | 35.06190 | -89.98256 | 331 ft | 5 kts | 182° |
| 2026-05-07 15:48 | 35.06094 | -89.98260 | 334 ft | 15 kts | 182° |
| 2026-05-07 15:48 | 35.06028 | -89.98225 | 333 ft | 13 kts | 120° |
| 2026-05-07 15:49 | 35.06013 | -89.97990 | 333 ft | 25 kts | 92° |
| 2026-05-07 15:49 | 35.06008 | -89.97850 | 333 ft | 24 kts | 91° |
| 2026-05-07 15:49 | 35.05979 | -89.97655 | 332 ft | 23 kts | 105° |
| 2026-05-07 15:49 | 35.05943 | -89.97467 | 336 ft | 22 kts | 95° |
| 2026-05-07 15:50 | 35.05937 | -89.97285 | 332 ft | 21 kts | 92° |
| 2026-05-07 15:50 | 35.05931 | -89.97105 | 336 ft | 21 kts | 92° |
| 2026-05-07 15:50 | 35.05927 | -89.96934 | 336 ft | 20 kts | 92° |
| 2026-05-07 15:50 | 35.05922 | -89.96768 | 332 ft | 19 kts | 91° |
| 2026-05-07 15:51 | 35.05918 | -89.96604 | 334 ft | 21 kts | 92° |
| 2026-05-07 15:51 | 35.05912 | -89.96381 | 333 ft | 30 kts | 92° |
| 2026-05-07 15:51 | 35.05905 | -89.96138 | 334 ft | 28 kts | 93° |
| 2026-05-07 15:51 | 35.05897 | -89.95902 | 333 ft | 27 kts | 91° |
| 2026-05-07 15:52 | 35.05892 | -89.95675 | 337 ft | 22 kts | 91° |
| 2026-05-07 15:52 | 35.05885 | -89.95626 | 333 ft | 7 kts | 110° |
| 2026-05-07 15:52 | 35.05873 | -89.95605 | 332 ft | 0 kts | 137° |
| 2026-05-07 15:53 | 35.05845 | -89.95596 | 334 ft | 14 kts | 181° |
| 2026-05-07 15:54 | 35.05784 | -89.95672 | 338 ft | 15 kts | 262° |
| 2026-05-07 15:54 | 35.05789 | -89.95937 | 338 ft | 64 kts | 272° |
| 2026-05-07 15:54 | 35.05813 | -89.96785 | 332 ft | 135 kts | 272° |
| 2026-05-07 15:54 | 35.05847 | -89.98186 | 431 ft | 188 kts | 271° |
| 2026-05-07 15:55 | 35.05784 | -89.99840 | 1243 ft | 195 kts | 264° |
| 2026-05-07 15:55 | 35.05309 | -90.01511 | 1901 ft | 232 kts | 235° |
| 2026-05-07 15:55 | 35.03958 | -90.02768 | 2236 ft | 267 kts | 200° |
| 2026-05-07 15:55 | 35.02059 | -90.03145 | 3018 ft | 283 kts | 174° |
| 2026-05-07 15:56 | 35.00224 | -90.02326 | 4038 ft | 282 kts | 141° |
| 2026-05-07 15:56 | 34.99081 | -90.00471 | 5302 ft | 274 kts | 108° |
| 2026-05-07 15:56 | 34.98929 | -89.98188 | 6339 ft | 279 kts | 76° |
| 2026-05-07 15:56 | 34.99817 | -89.96105 | 7245 ft | 282 kts | 42° |
| 2026-05-07 15:57 | 35.01340 | -89.94554 | 8245 ft | 290 kts | 35° |
| 2026-05-07 15:57 | 35.02727 | -89.92665 | 9218 ft | 307 kts | 47° |
| 2026-05-07 15:57 | 35.03938 | -89.90451 | 10141 ft | 322 kts | 53° |
| 2026-05-07 15:57 | 35.04710 | -89.87758 | 10631 ft | 356 kts | 81° |
| 2026-05-07 15:58 | 35.04475 | -89.84667 | 10958 ft | 380 kts | 108° |
| 2026-05-07 15:58 | 35.03503 | -89.81581 | 11329 ft | 400 kts | 114° |
| 2026-05-07 15:58 | 35.02520 | -89.78318 | 11859 ft | 414 kts | 111° |
| 2026-05-07 15:58 | 35.01673 | -89.74934 | 12542 ft | 422 kts | 108° |
| 2026-05-07 15:59 | 35.00907 | -89.71439 | 13258 ft | 429 kts | 107° |
| 2026-05-07 15:59 | 35.00191 | -89.67891 | 13963 ft | 435 kts | 106° |
| 2026-05-07 15:59 | 34.99500 | -89.64316 | 14571 ft | 442 kts | 106° |
| 2026-05-07 15:59 | 34.98804 | -89.60637 | 15109 ft | 449 kts | 106° |
| 2026-05-07 16:00 | 34.98101 | -89.56876 | 15674 ft | 457 kts | 106° |
| 2026-05-07 16:00 | 34.97394 | -89.53063 | 16269 ft | 463 kts | 107° |
| 2026-05-07 16:00 | 34.96683 | -89.49223 | 16864 ft | 469 kts | 107° |
| 2026-05-07 16:00 | 34.95956 | -89.45298 | 17447 ft | 476 kts | 107° |
| 2026-05-07 16:01 | 34.95223 | -89.41348 | 18021 ft | 482 kts | 107° |
| 2026-05-07 16:01 | 34.94478 | -89.37338 | 18570 ft | 488 kts | 107° |
| 2026-05-07 16:01 | 34.93723 | -89.33273 | 19086 ft | 493 kts | 108° |
| 2026-05-07 16:01 | 34.92959 | -89.29169 | 19609 ft | 498 kts | 108° |
| 2026-05-07 16:02 | 34.92188 | -89.25036 | 20120 ft | 503 kts | 108° |
| 2026-05-07 16:02 | 34.91423 | -89.20917 | 20572 ft | 508 kts | 107° |
| 2026-05-07 16:02 | 34.90660 | -89.16638 | 21040 ft | 513 kts | 107° |
| 2026-05-07 16:02 | 34.89926 | -89.12423 | 21490 ft | 518 kts | 106° |
| 2026-05-07 16:03 | 34.89198 | -89.08111 | 21935 ft | 523 kts | 106° |
| 2026-05-07 16:03 | 34.88460 | -89.03736 | 22378 ft | 527 kts | 106° |
| 2026-05-07 16:03 | 34.87717 | -88.99346 | 22812 ft | 531 kts | 106° |
| 2026-05-07 16:03 | 34.86966 | -88.94923 | 23246 ft | 535 kts | 106° |
| 2026-05-07 16:04 | 34.86208 | -88.90470 | 23664 ft | 540 kts | 106° |
| 2026-05-07 16:04 | 34.85439 | -88.85971 | 24007 ft | 544 kts | 106° |
| 2026-05-07 16:04 | 34.84668 | -88.81470 | 24340 ft | 547 kts | 107° |
| 2026-05-07 16:04 | 34.83885 | -88.76911 | 24668 ft | 551 kts | 107° |
| 2026-05-07 16:05 | 34.83095 | -88.72327 | 24999 ft | 554 kts | 107° |
| 2026-05-07 16:05 | 34.82299 | -88.67719 | 25334 ft | 557 kts | 107° |
| 2026-05-07 16:05 | 34.81498 | -88.63090 | 25663 ft | 560 kts | 107° |
| 2026-05-07 16:05 | 34.80692 | -88.58439 | 25975 ft | 563 kts | 107° |
| 2026-05-07 16:06 | 34.79885 | -88.53796 | 26296 ft | 565 kts | 107° |
| 2026-05-07 16:06 | 34.79061 | -88.49066 | 26588 ft | 569 kts | 107° |
| 2026-05-07 16:06 | 34.78237 | -88.44348 | 26888 ft | 571 kts | 107° |
| 2026-05-07 16:06 | 34.77408 | -88.39618 | 27182 ft | 573 kts | 107° |
| 2026-05-07 16:07 | 34.76584 | -88.34925 | 27453 ft | 576 kts | 108° |
| 2026-05-07 16:07 | 34.75734 | -88.30092 | 27740 ft | 579 kts | 108° |
| 2026-05-07 16:07 | 34.74885 | -88.25290 | 28001 ft | 581 kts | 108° |
| 2026-05-07 16:07 | 34.73796 | -88.20669 | 28226 ft | 573 kts | 118° |
| 2026-05-07 16:08 | 34.71967 | -88.16453 | 28408 ft | 555 kts | 134° |
| 2026-05-07 16:08 | 34.69483 | -88.13017 | 28798 ft | 529 kts | 150° |
| 2026-05-07 16:08 | 34.66601 | -88.10385 | 29245 ft | 512 kts | 158° |
| 2026-05-07 16:08 | 34.63638 | -88.08017 | 29645 ft | 506 kts | 161° |
| 2026-05-07 16:09 | 34.60643 | -88.05771 | 30080 ft | 502 kts | 162° |
| 2026-05-07 16:09 | 34.57657 | -88.03589 | 30426 ft | 501 kts | 162° |
| 2026-05-07 16:09 | 34.54677 | -88.01414 | 30801 ft | 499 kts | 162° |
| 2026-05-07 16:09 | 34.51716 | -87.99237 | 31222 ft | 496 kts | 162° |
| 2026-05-07 16:10 | 34.48781 | -87.97060 | 31669 ft | 494 kts | 162° |
| 2026-05-07 16:10 | 34.45858 | -87.94876 | 32076 ft | 491 kts | 162° |
| 2026-05-07 16:10 | 34.42969 | -87.92708 | 32594 ft | 487 kts | 162° |
| 2026-05-07 16:10 | 34.40099 | -87.90551 | 33044 ft | 483 kts | 162° |
| 2026-05-07 16:11 | 34.37247 | -87.88411 | 33442 ft | 482 kts | 162° |
| 2026-05-07 16:11 | 34.34400 | -87.86280 | 33812 ft | 480 kts | 162° |
| 2026-05-07 16:11 | 34.31556 | -87.84154 | 34169 ft | 479 kts | 162° |
| 2026-05-07 16:11 | 34.28717 | -87.82034 | 34441 ft | 479 kts | 162° |
| 2026-05-07 16:12 | 34.25913 | -87.79943 | 34674 ft | 480 kts | 162° |
| 2026-05-07 16:12 | 34.23032 | -87.77797 | 34927 ft | 481 kts | 162° |
| 2026-05-07 16:12 | 34.20190 | -87.75679 | 35193 ft | 481 kts | 162° |
| 2026-05-07 16:12 | 34.17382 | -87.73587 | 35432 ft | 480 kts | 162° |
| 2026-05-07 16:13 | 34.14543 | -87.71467 | 35776 ft | 478 kts | 162° |
| 2026-05-07 16:13 | 34.11713 | -87.69358 | 36041 ft | 478 kts | 162° |
| 2026-05-07 16:13 | 34.08880 | -87.67251 | 36286 ft | 479 kts | 162° |
| 2026-05-07 16:13 | 34.06057 | -87.65155 | 36525 ft | 479 kts | 162° |
| 2026-05-07 16:14 | 34.03197 | -87.63034 | 36767 ft | 480 kts | 162° |
| 2026-05-07 16:14 | 34.00350 | -87.60924 | 36993 ft | 481 kts | 162° |
| 2026-05-07 16:14 | 33.97506 | -87.58814 | 37045 ft | 477 kts | 162° |
| 2026-05-07 16:15 | 33.91941 | -87.54667 | 37011 ft | 465 kts | 162° |
| 2026-05-07 16:15 | 33.86439 | -87.50603 | 37061 ft | 464 kts | 162° |
| 2026-05-07 16:16 | 33.80960 | -87.46571 | 37056 ft | 464 kts | 162° |
| 2026-05-07 16:16 | 33.75427 | -87.42500 | 37055 ft | 464 kts | 162° |
| 2026-05-07 16:17 | 33.69951 | -87.38472 | 37043 ft | 464 kts | 162° |
| 2026-05-07 16:17 | 33.64454 | -87.34433 | 37001 ft | 463 kts | 162° |
| 2026-05-07 16:18 | 33.58947 | -87.30391 | 37038 ft | 464 kts | 162° |
| 2026-05-07 16:18 | 33.53438 | -87.26354 | 37037 ft | 464 kts | 162° |
| 2026-05-07 16:19 | 33.47927 | -87.22321 | 37038 ft | 464 kts | 162° |
| 2026-05-07 16:19 | 33.42416 | -87.18296 | 37045 ft | 464 kts | 162° |
| 2026-05-07 16:20 | 33.36897 | -87.14270 | 37044 ft | 464 kts | 162° |
| 2026-05-07 16:20 | 33.31419 | -87.10283 | 37052 ft | 464 kts | 162° |
| 2026-05-07 16:21 | 33.25906 | -87.06275 | 37054 ft | 464 kts | 162° |
| 2026-05-07 16:21 | 33.20387 | -87.02267 | 37050 ft | 464 kts | 162° |
| 2026-05-07 16:22 | 33.14872 | -86.98269 | 37051 ft | 464 kts | 162° |
| 2026-05-07 16:22 | 33.09357 | -86.94276 | 37025 ft | 464 kts | 161° |
| 2026-05-07 16:23 | 33.03822 | -86.90275 | 37006 ft | 464 kts | 161° |
| 2026-05-07 16:23 | 32.98334 | -86.86314 | 37004 ft | 464 kts | 161° |
| 2026-05-07 16:24 | 32.92816 | -86.82337 | 37008 ft | 464 kts | 161° |
| 2026-05-07 16:24 | 32.87289 | -86.78360 | 36998 ft | 464 kts | 162° |
| 2026-05-07 16:25 | 32.81763 | -86.74389 | 37001 ft | 464 kts | 161° |
| 2026-05-07 16:25 | 32.76233 | -86.70421 | 36992 ft | 463 kts | 161° |
| 2026-05-07 16:26 | 32.70738 | -86.66483 | 36992 ft | 463 kts | 161° |
| 2026-05-07 16:26 | 32.65216 | -86.62534 | 36997 ft | 463 kts | 161° |
| 2026-05-07 16:27 | 32.59690 | -86.58588 | 36996 ft | 463 kts | 161° |
| 2026-05-07 16:27 | 32.54159 | -86.54642 | 36990 ft | 462 kts | 160° |
| 2026-05-07 16:28 | 32.48653 | -86.50716 | 36996 ft | 461 kts | 160° |
| 2026-05-07 16:28 | 32.43157 | -86.46807 | 36998 ft | 460 kts | 161° |
| 2026-05-07 16:29 | 32.37693 | -86.42928 | 36999 ft | 460 kts | 161° |
| 2026-05-07 16:29 | 32.32196 | -86.39029 | 37027 ft | 460 kts | 161° |
| 2026-05-07 16:30 | 32.26709 | -86.35144 | 37023 ft | 461 kts | 160° |
| 2026-05-07 16:30 | 32.21321 | -86.30891 | 37030 ft | 478 kts | 148° |
| 2026-05-07 16:31 | 32.16293 | -86.25789 | 37013 ft | 477 kts | 149° |
| 2026-05-07 16:31 | 32.11276 | -86.20649 | 36988 ft | 478 kts | 149° |
| 2026-05-07 16:32 | 32.06262 | -86.15493 | 36997 ft | 476 kts | 148° |
| 2026-05-07 16:32 | 32.01321 | -86.10411 | 36978 ft | 474 kts | 148° |
| 2026-05-07 16:33 | 31.96355 | -86.05312 | 37022 ft | 472 kts | 148° |
| 2026-05-07 16:33 | 31.92240 | -86.01093 | 37030 ft | 472 kts | 148° |
| 2026-05-07 16:34 | 31.87288 | -85.96021 | 37027 ft | 471 kts | 148° |
| 2026-05-07 16:34 | 31.82334 | -85.90955 | 37024 ft | 472 kts | 148° |
| 2026-05-07 16:35 | 31.77413 | -85.85841 | 37014 ft | 476 kts | 144° |
| 2026-05-07 16:35 | 31.72878 | -85.80088 | 36964 ft | 481 kts | 140° |
| 2026-05-07 16:36 | 31.68421 | -85.74265 | 36985 ft | 478 kts | 140° |
| 2026-05-07 16:36 | 31.63974 | -85.68479 | 36985 ft | 476 kts | 140° |
| 2026-05-07 16:37 | 31.59523 | -85.62706 | 36992 ft | 476 kts | 140° |
| 2026-05-07 16:37 | 31.55076 | -85.56948 | 36999 ft | 477 kts | 140° |
| 2026-05-07 16:38 | 31.50615 | -85.51181 | 37005 ft | 477 kts | 140° |
| 2026-05-07 16:38 | 31.46189 | -85.45467 | 37056 ft | 477 kts | 140° |
| 2026-05-07 16:39 | 31.41714 | -85.39702 | 37065 ft | 479 kts | 139° |
| 2026-05-07 16:39 | 31.37212 | -85.33911 | 37070 ft | 482 kts | 139° |
| 2026-05-07 16:40 | 31.32690 | -85.28099 | 37000 ft | 482 kts | 139° |
| 2026-05-07 16:40 | 31.28171 | -85.22300 | 37007 ft | 482 kts | 139° |
| 2026-05-07 16:41 | 31.23657 | -85.16519 | 37014 ft | 482 kts | 139° |
| 2026-05-07 16:41 | 31.19129 | -85.10727 | 37018 ft | 482 kts | 139° |
| 2026-05-07 16:42 | 31.14611 | -85.04958 | 36988 ft | 482 kts | 139° |
| 2026-05-07 16:42 | 31.10078 | -84.99179 | 37014 ft | 482 kts | 138° |
| 2026-05-07 16:43 | 31.05539 | -84.93400 | 37028 ft | 482 kts | 138° |
| 2026-05-07 16:43 | 31.01034 | -84.87672 | 37042 ft | 482 kts | 138° |
| 2026-05-07 16:44 | 30.96493 | -84.81909 | 37051 ft | 482 kts | 138° |
| 2026-05-07 16:44 | 30.91951 | -84.76152 | 37010 ft | 482 kts | 138° |
| 2026-05-07 16:45 | 30.87393 | -84.70384 | 37008 ft | 482 kts | 138° |
| 2026-05-07 16:45 | 30.82840 | -84.64632 | 37006 ft | 487 kts | 139° |
| 2026-05-07 16:46 | 30.78211 | -84.58796 | 37012 ft | 493 kts | 139° |
| 2026-05-07 16:46 | 30.73548 | -84.52919 | 37014 ft | 494 kts | 139° |
| 2026-05-07 16:47 | 30.68914 | -84.47089 | 37014 ft | 494 kts | 139° |
| 2026-05-07 16:47 | 30.64251 | -84.41233 | 37016 ft | 494 kts | 139° |
| 2026-05-07 16:48 | 30.59582 | -84.35379 | 37045 ft | 494 kts | 139° |
| 2026-05-07 16:48 | 30.54900 | -84.29517 | 37054 ft | 494 kts | 139° |
| 2026-05-07 16:49 | 30.50229 | -84.23678 | 37054 ft | 495 kts | 139° |
| 2026-05-07 16:49 | 30.45534 | -84.17818 | 37051 ft | 495 kts | 139° |
| 2026-05-07 16:50 | 30.40838 | -84.11965 | 37046 ft | 495 kts | 139° |
| 2026-05-07 16:50 | 30.35847 | -84.06690 | 37043 ft | 481 kts | 154° |
| 2026-05-07 16:51 | 30.30123 | -84.02778 | 37046 ft | 476 kts | 158° |
| 2026-05-07 16:51 | 30.24362 | -83.98983 | 37035 ft | 477 kts | 158° |
| 2026-05-07 16:52 | 30.18607 | -83.95179 | 37046 ft | 477 kts | 158° |
| 2026-05-07 16:52 | 30.12840 | -83.91365 | 37064 ft | 477 kts | 158° |
| 2026-05-07 16:53 | 30.07085 | -83.87563 | 37077 ft | 477 kts | 158° |
| 2026-05-07 16:53 | 30.01310 | -83.83751 | 37085 ft | 477 kts | 158° |
| 2026-05-07 16:54 | 29.95535 | -83.79945 | 37068 ft | 477 kts | 158° |
| 2026-05-07 16:54 | 29.89792 | -83.76165 | 37084 ft | 479 kts | 158° |
| 2026-05-07 16:55 | 29.84000 | -83.72357 | 37085 ft | 479 kts | 158° |
| 2026-05-07 16:55 | 29.78205 | -83.68552 | 37076 ft | 479 kts | 158° |
| 2026-05-07 16:56 | 29.72420 | -83.64759 | 37072 ft | 479 kts | 158° |
| 2026-05-07 16:56 | 29.63723 | -83.59067 | 37073 ft | 479 kts | 157° |
| 2026-05-07 16:57 | 29.57940 | -83.55287 | 37075 ft | 478 kts | 158° |
| 2026-05-07 16:57 | 29.52160 | -83.51516 | 37075 ft | 478 kts | 157° |
| 2026-05-07 16:58 | 29.46371 | -83.47744 | 37073 ft | 479 kts | 157° |
| 2026-05-07 16:58 | 29.40573 | -83.43970 | 37075 ft | 479 kts | 157° |
| 2026-05-07 16:59 | 29.34818 | -83.40229 | 37075 ft | 478 kts | 157° |
| 2026-05-07 16:59 | 29.29020 | -83.36466 | 37077 ft | 478 kts | 157° |
| 2026-05-07 17:00 | 29.23155 | -83.32991 | 37080 ft | 473 kts | 162° |
| 2026-05-07 17:00 | 29.17145 | -83.29933 | 37083 ft | 472 kts | 163° |
| 2026-05-07 17:01 | 29.11130 | -83.26891 | 37081 ft | 472 kts | 163° |
| 2026-05-07 17:01 | 29.05122 | -83.23851 | 37074 ft | 472 kts | 162° |
| 2026-05-07 17:02 | 28.99135 | -83.20822 | 37079 ft | 470 kts | 162° |
| 2026-05-07 17:02 | 28.93148 | -83.17797 | 37080 ft | 470 kts | 162° |
| 2026-05-07 17:03 | 28.87161 | -83.14776 | 37072 ft | 470 kts | 162° |
| 2026-05-07 17:03 | 28.81181 | -83.11762 | 37072 ft | 470 kts | 162° |
| 2026-05-07 17:04 | 28.75193 | -83.08748 | 37073 ft | 469 kts | 162° |
| 2026-05-07 17:04 | 28.69270 | -83.05770 | 37075 ft | 468 kts | 162° |
| 2026-05-07 17:05 | 28.63303 | -83.02774 | 37075 ft | 468 kts | 162° |
| 2026-05-07 17:05 | 28.57332 | -82.99779 | 37075 ft | 468 kts | 162° |
| 2026-05-07 17:06 | 28.51377 | -82.96796 | 37073 ft | 468 kts | 162° |
| 2026-05-07 17:06 | 28.45413 | -82.93813 | 37071 ft | 468 kts | 162° |
| 2026-05-07 17:07 | 28.39437 | -82.90827 | 37075 ft | 468 kts | 162° |
| 2026-05-07 17:07 | 28.33486 | -82.87857 | 37077 ft | 468 kts | 162° |
| 2026-05-07 17:08 | 28.27523 | -82.84885 | 37076 ft | 468 kts | 162° |
| 2026-05-07 17:08 | 28.21590 | -82.81931 | 37075 ft | 468 kts | 162° |
| 2026-05-07 17:09 | 28.15624 | -82.78965 | 37078 ft | 468 kts | 161° |
| 2026-05-07 17:09 | 28.09650 | -82.75999 | 37087 ft | 468 kts | 161° |
| 2026-05-07 17:10 | 28.03684 | -82.73041 | 37080 ft | 468 kts | 162° |
| 2026-05-07 17:10 | 27.97507 | -82.71012 | 37088 ft | 458 kts | 175° |
| 2026-05-07 17:11 | 27.91279 | -82.69782 | 37082 ft | 457 kts | 176° |
| 2026-05-07 17:11 | 27.84998 | -82.68557 | 37077 ft | 458 kts | 175° |
| 2026-05-07 17:12 | 27.78721 | -82.67325 | 37075 ft | 458 kts | 175° |
| 2026-05-07 17:12 | 27.72426 | -82.66087 | 37072 ft | 459 kts | 175° |
| 2026-05-07 17:13 | 27.66140 | -82.64851 | 37072 ft | 459 kts | 175° |
| 2026-05-07 17:13 | 27.59858 | -82.63617 | 37079 ft | 459 kts | 175° |
| 2026-05-07 17:14 | 27.53559 | -82.62372 | 37074 ft | 460 kts | 174° |
| 2026-05-07 17:14 | 27.47365 | -82.60639 | 37083 ft | 462 kts | 171° |
| 2026-05-07 17:15 | 27.41133 | -82.58784 | 37098 ft | 462 kts | 171° |
| 2026-05-07 17:15 | 27.34915 | -82.56950 | 37102 ft | 462 kts | 171° |
| 2026-05-07 17:16 | 27.28686 | -82.55120 | 37098 ft | 462 kts | 171° |
| 2026-05-07 17:16 | 27.22461 | -82.53296 | 37097 ft | 462 kts | 171° |
| 2026-05-07 17:17 | 27.16228 | -82.51472 | 37094 ft | 462 kts | 171° |
| 2026-05-07 17:17 | 27.10003 | -82.49654 | 37091 ft | 462 kts | 171° |
| 2026-05-07 17:18 | 27.03822 | -82.47849 | 37094 ft | 462 kts | 171° |
| 2026-05-07 17:18 | 26.97603 | -82.46036 | 37096 ft | 462 kts | 171° |
| 2026-05-07 17:19 | 26.91501 | -82.43674 | 37090 ft | 470 kts | 156° |
| 2026-05-07 17:19 | 26.88766 | -82.41635 | 37093 ft | 476 kts | 145° |
| 2026-05-07 17:19 | 26.87862 | -82.40815 | 37095 ft | 476 kts | 144° |
| 2026-05-07 17:20 | 26.86306 | -82.39343 | 37025 ft | 480 kts | 143° |
| 2026-05-07 17:20 | 26.83721 | -82.36848 | 36791 ft | 489 kts | 142° |
| 2026-05-07 17:20 | 26.81165 | -82.34374 | 36540 ft | 492 kts | 142° |
| 2026-05-07 17:21 | 26.78575 | -82.31874 | 36297 ft | 493 kts | 142° |
| 2026-05-07 17:21 | 26.75969 | -82.29367 | 36055 ft | 494 kts | 142° |
| 2026-05-07 17:21 | 26.73357 | -82.26860 | 35809 ft | 494 kts | 142° |
| 2026-05-07 17:21 | 26.70751 | -82.24363 | 35558 ft | 494 kts | 143° |
| 2026-05-07 17:22 | 26.68139 | -82.21864 | 35350 ft | 494 kts | 143° |
| 2026-05-07 17:22 | 26.65522 | -82.19362 | 35101 ft | 495 kts | 143° |
| 2026-05-07 17:22 | 26.62905 | -82.16862 | 34857 ft | 495 kts | 142° |
| 2026-05-07 17:22 | 26.60284 | -82.14359 | 34637 ft | 495 kts | 142° |
| 2026-05-07 17:23 | 26.57661 | -82.11857 | 34410 ft | 495 kts | 142° |
| 2026-05-07 17:23 | 26.55039 | -82.09358 | 34185 ft | 495 kts | 142° |
| 2026-05-07 17:23 | 26.52429 | -82.06844 | 33940 ft | 496 kts | 141° |
| 2026-05-07 17:23 | 26.49851 | -82.04262 | 33689 ft | 497 kts | 141° |
| 2026-05-07 17:24 | 26.47283 | -82.01667 | 33428 ft | 498 kts | 141° |
| 2026-05-07 17:24 | 26.44720 | -81.99079 | 33147 ft | 496 kts | 141° |
| 2026-05-07 17:24 | 26.42188 | -81.96523 | 32605 ft | 487 kts | 141° |
| 2026-05-07 17:24 | 26.39713 | -81.94030 | 31926 ft | 483 kts | 141° |
| 2026-05-07 17:25 | 26.37198 | -81.91500 | 31306 ft | 477 kts | 141° |
| 2026-05-07 17:25 | 26.34774 | -81.89064 | 30717 ft | 472 kts | 141° |
| 2026-05-07 17:25 | 26.32362 | -81.86641 | 30113 ft | 467 kts | 141° |
| 2026-05-07 17:25 | 26.29955 | -81.84226 | 29441 ft | 462 kts | 141° |
| 2026-05-07 17:26 | 26.27573 | -81.81838 | 28847 ft | 456 kts | 141° |
| 2026-05-07 17:26 | 26.25240 | -81.79485 | 28236 ft | 451 kts | 139° |
| 2026-05-07 17:26 | 26.23240 | -81.76800 | 27556 ft | 453 kts | 123° |
| 2026-05-07 17:26 | 26.21763 | -81.73702 | 26870 ft | 452 kts | 117° |
| 2026-05-07 17:27 | 26.20415 | -81.70547 | 26291 ft | 446 kts | 116° |
| 2026-05-07 17:27 | 26.19091 | -81.67430 | 25676 ft | 444 kts | 117° |
| 2026-05-07 17:27 | 26.17769 | -81.64344 | 25164 ft | 438 kts | 117° |
| 2026-05-07 17:27 | 26.16470 | -81.61332 | 24576 ft | 436 kts | 117° |
| 2026-05-07 17:28 | 26.15161 | -81.58313 | 24082 ft | 429 kts | 117° |
| 2026-05-07 17:28 | 26.13872 | -81.55344 | 23233 ft | 423 kts | 117° |
| 2026-05-07 17:28 | 26.12595 | -81.52414 | 22256 ft | 416 kts | 117° |
| 2026-05-07 17:28 | 26.11348 | -81.49554 | 21505 ft | 404 kts | 116° |
| 2026-05-07 17:29 | 26.10144 | -81.46795 | 20899 ft | 389 kts | 116° |
| 2026-05-07 17:29 | 26.08978 | -81.44125 | 20331 ft | 379 kts | 116° |
| 2026-05-07 17:29 | 26.07820 | -81.41479 | 19773 ft | 379 kts | 116° |
| 2026-05-07 17:29 | 26.06679 | -81.38867 | 19187 ft | 373 kts | 116° |
| 2026-05-07 17:30 | 26.05558 | -81.36293 | 18635 ft | 367 kts | 115° |
| 2026-05-07 17:30 | 26.04448 | -81.33744 | 18034 ft | 363 kts | 115° |
| 2026-05-07 17:30 | 26.03355 | -81.31235 | 17440 ft | 359 kts | 115° |
| 2026-05-07 17:30 | 26.02273 | -81.28754 | 16842 ft | 354 kts | 115° |
| 2026-05-07 17:31 | 26.01202 | -81.26300 | 16309 ft | 350 kts | 115° |
| 2026-05-07 17:31 | 26.00143 | -81.23873 | 15787 ft | 346 kts | 115° |
| 2026-05-07 17:31 | 25.99097 | -81.21477 | 15245 ft | 342 kts | 115° |
| 2026-05-07 17:31 | 25.98074 | -81.19136 | 14754 ft | 341 kts | 115° |
| 2026-05-07 17:32 | 25.97038 | -81.16768 | 14235 ft | 339 kts | 115° |
| 2026-05-07 17:32 | 25.96010 | -81.14419 | 13694 ft | 337 kts | 115° |
| 2026-05-07 17:32 | 25.94990 | -81.12086 | 13153 ft | 334 kts | 115° |
| 2026-05-07 17:32 | 25.93967 | -81.09751 | 12643 ft | 329 kts | 115° |
| 2026-05-07 17:33 | 25.92984 | -81.07509 | 12149 ft | 325 kts | 115° |
| 2026-05-07 17:33 | 25.92004 | -81.05272 | 11666 ft | 321 kts | 115° |
| 2026-05-07 17:33 | 25.91067 | -81.03038 | 11183 ft | 317 kts | 113° |
| 2026-05-07 17:33 | 25.90196 | -81.00795 | 10709 ft | 313 kts | 113° |
| 2026-05-07 17:34 | 25.89348 | -80.98580 | 10247 ft | 309 kts | 113° |
| 2026-05-07 17:34 | 25.88519 | -80.96412 | 10033 ft | 301 kts | 113° |
| 2026-05-07 17:34 | 25.87700 | -80.94272 | 9993 ft | 301 kts | 113° |
| 2026-05-07 17:34 | 25.86880 | -80.92134 | 9987 ft | 298 kts | 113° |
| 2026-05-07 17:35 | 25.86074 | -80.90035 | 9953 ft | 292 kts | 113° |
| 2026-05-07 17:35 | 25.85291 | -80.87996 | 9368 ft | 287 kts | 113° |
| 2026-05-07 17:35 | 25.84507 | -80.85955 | 8598 ft | 286 kts | 113° |
| 2026-05-07 17:35 | 25.83724 | -80.83920 | 7982 ft | 285 kts | 113° |
| 2026-05-07 17:36 | 25.82959 | -80.81932 | 7624 ft | 284 kts | 113° |
| 2026-05-07 17:36 | 25.82181 | -80.79912 | 7362 ft | 284 kts | 113° |
| 2026-05-07 17:36 | 25.81399 | -80.77881 | 7115 ft | 285 kts | 113° |
| 2026-05-07 17:36 | 25.80626 | -80.75877 | 6855 ft | 282 kts | 113° |
| 2026-05-07 17:37 | 25.79852 | -80.73868 | 6595 ft | 282 kts | 113° |
| 2026-05-07 17:37 | 25.79088 | -80.71873 | 6337 ft | 281 kts | 112° |
| 2026-05-07 17:37 | 25.78632 | -80.69773 | 6071 ft | 281 kts | 94° |
| 2026-05-07 17:37 | 25.78643 | -80.67615 | 5826 ft | 280 kts | 88° |
| 2026-05-07 17:38 | 25.78748 | -80.65455 | 5551 ft | 279 kts | 87° |
| 2026-05-07 17:38 | 25.78857 | -80.63304 | 5314 ft | 280 kts | 87° |
| 2026-05-07 17:38 | 25.78961 | -80.61153 | 5074 ft | 279 kts | 87° |
| 2026-05-07 17:38 | 25.79061 | -80.58998 | 4634 ft | 279 kts | 87° |
| 2026-05-07 17:39 | 25.79158 | -80.56849 | 4130 ft | 279 kts | 88° |
| 2026-05-07 17:39 | 25.79253 | -80.54695 | 3708 ft | 276 kts | 88° |
| 2026-05-07 17:39 | 25.79342 | -80.52639 | 3420 ft | 262 kts | 88° |
| 2026-05-07 17:39 | 25.79425 | -80.50702 | 3196 ft | 238 kts | 88° |
| 2026-05-07 17:40 | 25.79501 | -80.48964 | 2992 ft | 214 kts | 88° |
| 2026-05-07 17:40 | 25.79570 | -80.47359 | 2781 ft | 201 kts | 88° |
| 2026-05-07 17:40 | 25.79634 | -80.45843 | 2468 ft | 194 kts | 88° |
| 2026-05-07 17:40 | 25.79697 | -80.44361 | 2089 ft | 189 kts | 88° |
| 2026-05-07 17:41 | 25.79754 | -80.42934 | 1857 ft | 182 kts | 89° |
| 2026-05-07 17:41 | 25.79808 | -80.41583 | 1783 ft | 164 kts | 89° |
| 2026-05-07 17:41 | 25.79858 | -80.40399 | 1665 ft | 145 kts | 88° |
| 2026-05-07 17:41 | 25.79904 | -80.39323 | 1487 ft | 135 kts | 89° |
| 2026-05-07 17:42 | 25.79946 | -80.38285 | 1495 ft | 135 kts | 89° |
| 2026-05-07 17:42 | 25.79989 | -80.37247 | 1502 ft | 135 kts | 90° |
| 2026-05-07 17:42 | 25.80031 | -80.36219 | 1452 ft | 134 kts | 88° |
| 2026-05-07 17:42 | 25.80080 | -80.35186 | 1317 ft | 134 kts | 89° |
| 2026-05-07 17:43 | 25.80130 | -80.34159 | 1106 ft | 133 kts | 89° |
| 2026-05-07 17:43 | 25.80169 | -80.33112 | 865 ft | 139 kts | 92° |
| 2026-05-07 17:43 | 25.80196 | -80.32029 | 543 ft | 142 kts | 90° |
| 2026-05-07 17:43 | 25.80256 | -80.30946 | 279 ft | 139 kts | 91° |
| 2026-05-07 17:44 | 25.80304 | -80.29902 | 45 ft | 130 kts | 91° |
| 2026-05-07 17:44 | 25.80336 | -80.28994 | 28 ft | 103 kts | 88° |
| 2026-05-07 17:44 | 25.80413 | -80.28568 | 26 ft | 10 kts | 30° |
| 2026-05-07 17:44 | 25.80444 | -80.28579 | 26 ft | 4 kts | 326° |
| 2026-05-07 17:45 | 25.80462 | -80.28640 | 27 ft | 15 kts | 272° |
| 2026-05-07 17:45 | 25.80459 | -80.28766 | 27 ft | 17 kts | 267° |
| 2026-05-07 17:45 | 25.80452 | -80.28900 | 29 ft | 18 kts | 266° |
| 2026-05-07 17:45 | 25.80446 | -80.29044 | 25 ft | 19 kts | 268° |
| 2026-05-07 17:46 | 25.80441 | -80.29179 | 27 ft | 16 kts | 267° |
| 2026-05-07 17:46 | 25.80475 | -80.29258 | 28 ft | 8 kts | 332° |
| 2026-05-07 17:46 | 25.80466 | -80.29311 | 27 ft | 19 kts | 243° |
| 2026-05-07 17:46 | 25.80466 | -80.29446 | 26 ft | 12 kts | 330° |
| 2026-05-07 17:47 | 25.80513 | -80.29452 | 27 ft | 1 kts | 359° |
| 2026-05-07 17:47 | 25.80515 | -80.29452 | 27 ft | 0 kts | 359° |